Weather at Lamb Holm Airfield

Public forecast

Using degrees Celsius for public forecast. Weather courtesy of forecast.io.

Closest aviation weather report (METAR) to Lamb Holm Airfield

Closest report is Kirkwall Airport, 4.2 nm (7.8 km) N.

2024/07/17 19:20 (retrieved 12 minutes ago)

EGPA 171920Z 14006KT 9999 FEW030 13/11 Q1017

Closest aviation forecast (TAF) to Lamb Holm Airfield

Closest forecast is RAF Lossiemouth, 72.4 nm (134.0 km) SSW.

2024/07/17 18:21 (retrieved 1 hour ago)

TAF TAF EGQS 171649Z 1718/1812 10006KT 9999 FEW045 PROB30 TEMPO 1806/1809 7000 SHRA